createdAt,value
2018-09-27T00:00:19.783Z,4.80
2018-09-27T00:01:19.765Z,4.60
2018-09-27T00:02:19.810Z,4.90
2018-09-27T00:03:19.728Z,5.30
2018-09-27T00:04:19.714Z,4.60
2018-09-27T00:05:19.700Z,4.80
2018-09-27T00:06:19.685Z,4.40
2018-09-27T00:07:19.662Z,4.90
2018-09-27T00:08:19.638Z,4.60
2018-09-27T00:09:19.619Z,4.80
2018-09-27T00:10:19.603Z,4.60
2018-09-27T00:11:19.583Z,4.50
2018-09-27T00:12:19.566Z,5.10
2018-09-27T00:13:19.547Z,4.70
2018-09-27T00:14:19.530Z,4.70
2018-09-27T00:15:19.511Z,5.20
2018-09-27T00:16:19.495Z,4.80
2018-09-27T00:17:19.478Z,4.80
2018-09-27T00:18:19.478Z,5.10
2018-09-27T00:19:19.438Z,5.40
2018-09-27T00:20:19.424Z,5.10
2018-09-27T00:21:19.465Z,5.30
2018-09-27T00:22:19.400Z,5.30
2018-09-27T00:23:19.365Z,4.90
2018-09-27T00:24:19.346Z,4.90
2018-09-27T00:25:19.328Z,5.00
2018-09-27T00:26:19.318Z,5.70
2018-09-27T00:27:19.303Z,5.10
2018-09-27T00:28:19.275Z,4.60
2018-09-27T00:29:19.266Z,4.60
2018-09-27T00:30:19.237Z,4.50
2018-09-27T00:31:19.228Z,4.40
2018-09-27T00:32:19.205Z,5.10
2018-09-27T00:33:19.183Z,4.70
2018-09-27T00:34:19.166Z,4.90
2018-09-27T00:35:19.148Z,4.70
2018-09-27T00:36:19.137Z,4.80
2018-09-27T00:37:19.111Z,4.70
2018-09-27T00:38:19.092Z,4.80
2018-09-27T00:39:19.077Z,4.80
2018-09-27T00:40:19.064Z,4.70
2018-09-27T00:41:19.036Z,5.10
2018-09-27T00:42:19.021Z,4.80
2018-09-27T00:43:19.007Z,5.00
2018-09-27T00:44:18.983Z,5.30
2018-09-27T00:45:18.963Z,5.40
2018-09-27T00:46:18.944Z,5.60
2018-09-27T00:47:18.928Z,5.10
2018-09-27T00:48:19.069Z,4.80
2018-09-27T00:49:18.924Z,5.30
2018-09-27T00:50:18.878Z,4.70
2018-09-27T00:51:18.915Z,5.10
2018-09-27T00:52:18.840Z,5.20
2018-09-27T00:53:18.819Z,5.00
2018-09-27T00:54:18.802Z,4.90
2018-09-27T00:55:18.787Z,5.10
2018-09-27T00:56:18.762Z,5.50
2018-09-27T00:57:18.743Z,5.10
2018-09-27T00:58:18.728Z,5.10
2018-09-27T00:59:18.712Z,5.00
2018-09-27T01:00:18.689Z,5.20
2018-09-27T01:01:18.669Z,5.30
2018-09-27T01:02:18.670Z,5.20
2018-09-27T01:03:18.633Z,5.50
2018-09-27T01:04:18.621Z,5.40
2018-09-27T01:05:18.599Z,5.40
2018-09-27T01:06:18.586Z,5.50
2018-09-27T01:07:18.558Z,5.50
2018-09-27T01:08:18.551Z,5.80
2018-09-27T01:09:18.523Z,5.10
2018-09-27T01:10:18.507Z,5.80
2018-09-27T01:11:18.487Z,5.60
2018-09-27T01:12:18.468Z,5.20
2018-09-27T01:13:18.446Z,5.40
2018-09-27T01:14:18.431Z,5.30
2018-09-27T01:15:18.419Z,5.70
2018-09-27T01:16:18.393Z,5.50
2018-09-27T01:17:18.391Z,5.60
2018-09-27T01:18:18.436Z,5.10
2018-09-27T01:19:18.342Z,5.90
2018-09-27T01:20:18.333Z,5.80
2018-09-27T01:21:18.305Z,5.50
2018-09-27T01:22:18.299Z,6.00
2018-09-27T01:23:18.273Z,5.50
2018-09-27T01:24:18.255Z,5.50
2018-09-27T01:25:18.228Z,5.40
2018-09-27T01:26:18.208Z,5.90
2018-09-27T01:27:18.192Z,5.50
2018-09-27T01:28:18.176Z,5.20
2018-09-27T01:29:18.152Z,5.20
2018-09-27T01:30:18.137Z,5.30
2018-09-27T01:31:18.122Z,5.40
2018-09-27T01:32:18.097Z,5.60
2018-09-27T01:33:18.077Z,6.00
2018-09-27T01:34:18.198Z,5.80
2018-09-27T01:35:18.050Z,6.00
2018-09-27T01:36:18.030Z,5.60
2018-09-27T01:37:18.067Z,5.40
2018-09-27T01:38:17.987Z,5.40
2018-09-27T01:39:17.969Z,5.10
2018-09-27T01:40:18.003Z,5.70
2018-09-27T01:41:17.928Z,5.90
2018-09-27T01:42:17.910Z,5.80
2018-09-27T01:43:17.896Z,5.90
2018-09-27T01:44:17.874Z,5.60
2018-09-27T01:45:17.857Z,5.50
2018-09-27T01:46:17.835Z,5.90
2018-09-27T01:47:17.819Z,5.60
2018-09-27T01:48:17.799Z,5.70
2018-09-27T01:49:17.781Z,5.50
2018-09-27T01:50:17.762Z,5.30
2018-09-27T01:51:17.744Z,5.60
2018-09-27T01:52:17.730Z,5.80
2018-09-27T01:53:17.705Z,5.40
2018-09-27T01:54:17.687Z,5.90
2018-09-27T01:55:17.668Z,5.30
2018-09-27T01:56:17.822Z,5.80
2018-09-27T01:57:17.643Z,5.80
2018-09-27T01:58:17.618Z,5.40
2018-09-27T01:59:17.660Z,5.80
2018-09-27T02:00:17.580Z,5.80
2018-09-27T02:01:17.556Z,5.90
2018-09-27T02:02:17.539Z,5.80
2018-09-27T02:03:17.519Z,5.60
2018-09-27T02:04:17.503Z,5.70
2018-09-27T02:05:17.483Z,5.50
2018-09-27T02:06:17.464Z,5.40
2018-09-27T02:07:17.461Z,5.40
2018-09-27T02:08:17.437Z,5.70
2018-09-27T02:09:17.409Z,5.70
2018-09-27T02:10:17.388Z,5.30
2018-09-27T02:11:17.370Z,5.10
2018-09-27T02:12:17.353Z,5.60
2018-09-27T02:13:17.334Z,5.50
2018-09-27T02:14:17.324Z,5.40
2018-09-27T02:15:17.297Z,5.10
2018-09-27T02:16:17.279Z,5.70
2018-09-27T02:17:17.258Z,5.80
2018-09-27T02:18:17.249Z,5.30
2018-09-27T02:19:17.225Z,6.40
2018-09-27T02:20:17.346Z,5.60
2018-09-27T02:21:17.184Z,5.30
2018-09-27T02:22:17.168Z,5.40
2018-09-27T02:23:17.149Z,5.50
2018-09-27T02:24:17.140Z,5.60
2018-09-27T02:25:17.108Z,5.60
2018-09-27T02:26:17.152Z,5.60
2018-09-27T02:27:17.072Z,5.10
2018-09-27T02:28:17.052Z,5.40
2018-09-27T02:29:17.036Z,6.00
2018-09-27T02:30:17.018Z,5.90
2018-09-27T02:31:16.998Z,5.70
2018-09-27T02:32:16.978Z,6.00
2018-09-27T02:33:16.963Z,5.40
2018-09-27T02:34:16.942Z,5.50
2018-09-27T02:35:16.925Z,5.50
2018-09-27T02:36:16.908Z,5.50
2018-09-27T02:37:16.884Z,5.70
2018-09-27T02:38:16.866Z,5.40
2018-09-27T02:39:16.849Z,6.10
2018-09-27T02:40:16.832Z,5.50
2018-09-27T02:41:16.812Z,6.00
2018-09-27T02:42:16.951Z,6.00
2018-09-27T02:43:16.774Z,5.80
2018-09-27T02:44:16.760Z,5.90
2018-09-27T02:45:16.770Z,5.70
2018-09-27T02:46:16.721Z,6.00
2018-09-27T02:47:16.699Z,6.00
2018-09-27T02:48:16.682Z,5.70
2018-09-27T02:49:16.661Z,6.00
2018-09-27T02:50:16.654Z,5.30
2018-09-27T02:51:16.625Z,5.80
2018-09-27T02:52:16.610Z,5.60
2018-09-27T02:53:16.588Z,5.80
2018-09-27T02:54:16.570Z,5.40
2018-09-27T02:55:16.549Z,5.40
2018-09-27T02:56:16.533Z,5.60
2018-09-27T02:57:16.522Z,5.70
2018-09-27T02:58:16.493Z,6.20
2018-09-27T02:59:16.477Z,5.70
2018-09-27T03:00:16.468Z,5.60
2018-09-27T03:01:16.440Z,5.20
2018-09-27T03:02:16.421Z,6.40
2018-09-27T03:03:16.402Z,5.60
2018-09-27T03:04:16.381Z,5.40
2018-09-27T03:05:16.364Z,6.20
2018-09-27T03:06:16.348Z,5.80
2018-09-27T03:07:16.329Z,6.40
2018-09-27T03:08:16.317Z,6.00
2018-09-27T03:09:16.473Z,6.40
2018-09-27T03:10:16.271Z,6.30
2018-09-27T03:11:16.262Z,5.90
2018-09-27T03:12:16.356Z,5.60
2018-09-27T03:13:16.219Z,6.00
2018-09-27T03:14:16.198Z,6.00
2018-09-27T03:15:16.180Z,5.80
2018-09-27T03:16:16.168Z,5.70
2018-09-27T03:17:16.149Z,6.00
2018-09-27T03:18:16.128Z,5.90
2018-09-27T03:19:16.107Z,5.90
2018-09-27T03:20:16.086Z,6.20
2018-09-27T03:21:16.072Z,5.80
2018-09-27T03:22:16.061Z,6.30
2018-09-27T03:23:16.036Z,5.80
2018-09-27T03:24:16.020Z,5.40
2018-09-27T03:25:15.997Z,6.00
2018-09-27T03:26:15.979Z,5.90
2018-09-27T03:27:15.960Z,5.50
2018-09-27T03:28:15.944Z,6.20
2018-09-27T03:29:15.922Z,5.90
2018-09-27T03:30:15.909Z,6.10
2018-09-27T03:31:15.889Z,5.40
2018-09-27T03:32:15.873Z,5.90
2018-09-27T03:33:15.851Z,5.80
2018-09-27T03:34:15.852Z,6.50
2018-09-27T03:35:15.822Z,6.20
2018-09-27T03:36:15.797Z,5.80
2018-09-27T03:37:15.784Z,6.40
2018-09-27T03:38:15.757Z,5.70
2018-09-27T03:39:15.745Z,6.50
2018-09-27T03:40:15.767Z,6.00
2018-09-27T03:41:15.703Z,6.60
2018-09-27T03:42:15.687Z,6.20
2018-09-27T03:43:15.674Z,6.50
2018-09-27T03:44:15.650Z,6.20
2018-09-27T03:45:15.631Z,5.80
2018-09-27T03:46:15.611Z,6.50
2018-09-27T03:47:15.597Z,6.50
2018-09-27T03:48:15.577Z,6.30
2018-09-27T03:49:15.557Z,6.50
2018-09-27T03:50:15.538Z,5.80
2018-09-27T03:51:15.521Z,6.10
2018-09-27T03:52:15.506Z,5.90
2018-09-27T03:53:15.482Z,6.30
2018-09-27T03:54:15.465Z,7.00
2018-09-27T03:55:15.449Z,6.70
2018-09-27T03:56:15.431Z,6.20
2018-09-27T03:57:15.410Z,6.10
2018-09-27T03:58:15.418Z,6.00
2018-09-27T03:59:15.375Z,6.20
2018-09-27T04:00:15.360Z,6.00
2018-09-27T04:01:15.467Z,6.30
2018-09-27T04:02:15.322Z,6.20
2018-09-27T04:03:15.339Z,6.50
2018-09-27T04:04:15.283Z,6.10
2018-09-27T04:05:15.268Z,6.00
2018-09-27T04:06:15.253Z,5.70
2018-09-27T04:07:15.227Z,6.20
2018-09-27T04:08:15.214Z,5.60
2018-09-27T04:09:15.193Z,6.00
2018-09-27T04:10:15.173Z,6.20
2018-09-27T04:11:15.153Z,6.20
2018-09-27T04:12:15.149Z,5.90
2018-09-27T04:13:15.120Z,6.60
2018-09-27T04:14:15.099Z,6.20
2018-09-27T04:15:15.086Z,5.70
2018-09-27T04:16:15.064Z,6.30
2018-09-27T04:17:15.045Z,6.40
2018-09-27T04:18:15.027Z,6.60
2018-09-27T04:19:15.009Z,6.10
2018-09-27T04:20:15.095Z,6.10
2018-09-27T04:21:14.978Z,5.60
2018-09-27T04:22:14.954Z,5.90
2018-09-27T04:23:14.936Z,5.80
2018-09-27T04:24:14.923Z,6.00
2018-09-27T04:25:14.899Z,6.50
2018-09-27T04:26:14.892Z,6.40
2018-09-27T04:27:14.864Z,5.80
2018-09-27T04:28:14.845Z,5.70
2018-09-27T04:29:14.829Z,5.70
2018-09-27T04:30:14.814Z,6.90
2018-09-27T04:31:14.790Z,6.50
2018-09-27T04:32:14.780Z,5.90
2018-09-27T04:33:14.759Z,5.40
2018-09-27T04:34:14.745Z,5.40
2018-09-27T04:35:14.726Z,6.50
2018-09-27T04:36:14.702Z,6.30
2018-09-27T04:37:14.688Z,5.90
2018-09-27T04:38:14.662Z,5.70
2018-09-27T04:39:14.662Z,6.00
2018-09-27T04:40:14.634Z,6.20
2018-09-27T04:41:14.607Z,6.70
2018-09-27T04:42:14.591Z,6.60
2018-09-27T04:43:14.580Z,6.70
2018-09-27T04:44:14.555Z,6.20
2018-09-27T04:45:14.541Z,6.70
2018-09-27T04:46:14.517Z,5.90
2018-09-27T04:47:14.501Z,6.00
2018-09-27T04:48:14.488Z,5.80
2018-09-27T04:49:14.462Z,6.10
2018-09-27T04:50:14.476Z,6.20
2018-09-27T04:51:14.426Z,6.50
2018-09-27T04:52:14.413Z,6.10
2018-09-27T04:53:14.394Z,6.40
2018-09-27T04:54:14.381Z,6.00
2018-09-27T04:55:14.354Z,6.90
2018-09-27T04:56:14.335Z,5.50
2018-09-27T04:57:14.315Z,6.50
2018-09-27T04:58:14.297Z,5.70
2018-09-27T04:59:14.280Z,6.50
2018-09-27T05:00:14.262Z,5.70
2018-09-27T05:01:14.242Z,6.10
2018-09-27T05:02:14.232Z,6.10
2018-09-27T05:03:14.212Z,6.10
2018-09-27T05:04:14.193Z,6.30
2018-09-27T05:05:14.172Z,6.10
2018-09-27T05:06:14.182Z,6.40
2018-09-27T05:07:14.134Z,6.10
2018-09-27T05:08:14.117Z,6.10
2018-09-27T05:09:14.100Z,5.70
2018-09-27T05:10:14.092Z,5.80
2018-09-27T05:11:14.063Z,6.40
2018-09-27T05:12:14.068Z,5.80
2018-09-27T05:13:14.030Z,5.50
2018-09-27T05:14:14.013Z,5.80
2018-09-27T05:15:13.991Z,6.30
2018-09-27T05:16:13.975Z,6.00
2018-09-27T05:17:13.960Z,5.90
2018-09-27T05:18:13.940Z,6.40
2018-09-27T05:19:13.920Z,5.80
2018-09-27T05:20:13.899Z,5.90
2018-09-27T05:21:13.892Z,6.00
2018-09-27T05:22:13.883Z,6.10
2018-09-27T05:23:13.945Z,6.10
2018-09-27T05:24:13.836Z,5.90
2018-09-27T05:25:13.808Z,5.90
2018-09-27T05:26:13.835Z,6.00
2018-09-27T05:27:13.816Z,5.60
2018-09-27T05:28:13.756Z,6.00
2018-09-27T05:29:13.740Z,6.50
2018-09-27T05:30:13.724Z,6.00
2018-09-27T05:31:13.706Z,5.60
2018-09-27T05:32:13.685Z,5.60
2018-09-27T05:33:13.667Z,6.10
2018-09-27T05:34:13.647Z,5.80
2018-09-27T05:35:13.639Z,6.20
2018-09-27T05:36:13.615Z,6.10
2018-09-27T05:37:13.592Z,6.30
2018-09-27T05:38:13.580Z,6.40
2018-09-27T05:39:13.561Z,6.60
2018-09-27T05:40:13.557Z,6.60
2018-09-27T05:41:13.520Z,6.20
2018-09-27T05:42:13.602Z,7.00
2018-09-27T05:43:13.481Z,6.70
2018-09-27T05:44:13.466Z,6.30
2018-09-27T05:45:13.513Z,6.20
2018-09-27T05:46:13.434Z,6.10
2018-09-27T05:47:13.412Z,6.80
2018-09-27T05:48:13.451Z,5.50
2018-09-27T05:49:13.374Z,6.40
2018-09-27T05:50:13.358Z,7.10
2018-09-27T05:51:13.348Z,5.80
2018-09-27T05:52:13.322Z,6.40
2018-09-27T05:53:13.301Z,6.40
2018-09-27T05:54:13.294Z,6.40
2018-09-27T05:55:13.266Z,5.70
2018-09-27T05:56:13.250Z,6.20
2018-09-27T05:57:13.235Z,6.90
2018-09-27T05:58:13.211Z,6.20
2018-09-27T05:59:13.197Z,6.10
2018-09-27T06:00:13.176Z,6.10
2018-09-27T06:01:13.170Z,5.80
2018-09-27T06:02:13.157Z,6.20
2018-09-27T06:03:13.132Z,5.90
2018-09-27T06:04:13.107Z,6.30
2018-09-27T06:05:13.093Z,5.80
2018-09-27T06:06:13.072Z,6.90
2018-09-27T06:07:13.049Z,6.30
2018-09-27T06:08:13.032Z,6.30
2018-09-27T06:09:13.014Z,6.50
2018-09-27T06:10:12.993Z,6.50
2018-09-27T06:11:12.997Z,6.70
2018-09-27T06:12:12.960Z,6.10
2018-09-27T06:13:12.938Z,6.30
2018-09-27T06:14:12.924Z,6.20
2018-09-27T06:15:12.964Z,6.50
2018-09-27T06:16:12.887Z,6.50
2018-09-27T06:17:12.869Z,6.30
2018-09-27T06:18:12.856Z,6.60
2018-09-27T06:19:12.883Z,6.00
2018-09-27T06:20:12.823Z,7.10
2018-09-27T06:21:12.797Z,6.50
2018-09-27T06:22:12.783Z,6.60
2018-09-27T06:23:12.760Z,7.10
2018-09-27T06:24:12.744Z,6.60
2018-09-27T06:25:12.722Z,6.70
2018-09-27T06:26:12.788Z,6.60
2018-09-27T06:27:12.693Z,7.50
2018-09-27T06:28:12.672Z,7.20
2018-09-27T06:29:12.659Z,7.40
2018-09-27T06:30:12.634Z,5.70
2018-09-27T06:31:12.722Z,7.20
2018-09-27T06:32:12.602Z,6.80
2018-09-27T06:33:12.581Z,6.20
2018-09-27T06:34:12.574Z,7.90
2018-09-27T06:35:12.606Z,8.10
2018-09-27T06:36:12.529Z,8.00
2018-09-27T06:37:12.514Z,7.30
2018-09-27T06:38:12.492Z,7.70
2018-09-27T06:39:12.484Z,7.00
2018-09-27T06:40:12.490Z,6.50
2018-09-27T06:41:12.437Z,7.20
2018-09-27T06:42:12.422Z,7.90
2018-09-27T06:43:12.404Z,7.60
2018-09-27T06:44:12.384Z,6.90
2018-09-27T06:45:12.369Z,6.60
2018-09-27T06:46:12.352Z,6.80
2018-09-27T06:47:12.338Z,7.30
2018-09-27T06:48:12.343Z,7.10
2018-09-27T06:49:12.303Z,6.90
2018-09-27T06:50:12.279Z,7.40
2018-09-27T06:51:12.261Z,6.90
2018-09-27T06:52:12.246Z,7.10
2018-09-27T06:53:12.226Z,7.20
2018-09-27T06:54:12.212Z,7.00
2018-09-27T06:55:12.439Z,6.90
2018-09-27T06:56:12.281Z,7.00
2018-09-27T06:57:12.156Z,7.00
2018-09-27T06:58:12.188Z,7.40
2018-09-27T06:59:12.122Z,7.10
2018-09-27T07:00:12.106Z,7.60
2018-09-27T07:01:12.194Z,7.60
2018-09-27T07:02:12.069Z,7.10
2018-09-27T07:03:12.064Z,6.80
2018-09-27T07:04:12.041Z,7.80
2018-09-27T07:05:12.018Z,6.60
2018-09-27T07:06:11.999Z,7.30
2018-09-27T07:07:11.988Z,7.50
2018-09-27T07:08:11.970Z,7.60
2018-09-27T07:09:11.950Z,7.30
2018-09-27T07:10:11.932Z,7.90
2018-09-27T07:11:11.912Z,7.90
2018-09-27T07:12:12.006Z,7.70
2018-09-27T07:13:11.879Z,7.40
2018-09-27T07:14:11.861Z,7.60
2018-09-27T07:15:11.842Z,7.70
2018-09-27T07:16:11.829Z,8.10
2018-09-27T07:17:11.823Z,7.90
2018-09-27T07:18:11.790Z,8.00
2018-09-27T07:19:11.774Z,8.30
2018-09-27T07:20:11.824Z,8.00
2018-09-27T07:21:11.740Z,8.50
2018-09-27T07:22:11.725Z,7.80
2018-09-27T07:23:11.755Z,8.10
2018-09-27T07:24:11.707Z,7.60
2018-09-27T07:25:11.755Z,8.00
2018-09-27T07:26:11.654Z,9.10
2018-09-27T07:27:11.639Z,8.80
2018-09-27T07:28:11.618Z,8.00
2018-09-27T07:29:11.597Z,8.00
2018-09-27T07:30:11.584Z,8.30
2018-09-27T07:31:11.680Z,8.20
2018-09-27T07:32:11.566Z,9.40
2018-09-27T07:33:11.527Z,9.10
2018-09-27T07:34:11.513Z,8.60
2018-09-27T07:35:11.493Z,8.30
2018-09-27T07:36:11.490Z,8.00
2018-09-27T07:37:11.462Z,8.30
2018-09-27T07:38:11.438Z,8.20
2018-09-27T07:39:11.576Z,8.20
2018-09-27T07:40:11.407Z,8.10
2018-09-27T07:41:11.393Z,8.20
2018-09-27T07:42:11.378Z,9.60
2018-09-27T07:43:11.352Z,8.90
2018-09-27T07:44:11.337Z,9.10
2018-09-27T07:45:11.318Z,8.00
2018-09-27T07:46:11.296Z,7.80
2018-09-27T07:47:11.396Z,8.90
2018-09-27T07:48:11.263Z,9.60
2018-09-27T07:49:11.248Z,8.70
2018-09-27T07:50:11.242Z,8.40
2018-09-27T07:51:11.218Z,8.70
2018-09-27T07:52:11.192Z,8.40
2018-09-27T07:53:11.180Z,9.90
2018-09-27T07:54:11.189Z,8.60
2018-09-27T07:55:11.144Z,8.50
2018-09-27T07:56:11.123Z,8.10
2018-09-27T07:57:11.100Z,8.90
2018-09-27T07:58:11.087Z,9.00
2018-09-27T07:59:11.077Z,8.80
2018-09-27T08:00:11.060Z,9.30
2018-09-27T08:01:11.035Z,9.30
2018-09-27T08:02:11.015Z,8.80
2018-09-27T08:03:11.081Z,8.30
2018-09-27T08:04:10.990Z,9.60
2018-09-27T08:05:10.967Z,8.70
2018-09-27T08:06:10.951Z,9.00
2018-09-27T08:07:10.928Z,9.90
2018-09-27T08:08:10.908Z,10.30
2018-09-27T08:09:10.949Z,9.00
2018-09-27T08:10:10.883Z,9.20
2018-09-27T08:11:10.926Z,9.60
2018-09-27T08:12:10.840Z,9.80
2018-09-27T08:13:10.825Z,9.90
2018-09-27T08:14:10.808Z,9.70
2018-09-27T08:15:10.791Z,9.50
2018-09-27T08:16:10.775Z,9.60
2018-09-27T08:17:10.815Z,10.10
2018-09-27T08:18:10.758Z,10.10
2018-09-27T08:19:10.718Z,10.20
2018-09-27T08:20:10.704Z,9.40
2018-09-27T08:21:10.849Z,9.70
2018-09-27T08:22:10.672Z,9.20
2018-09-27T08:23:10.653Z,9.90
2018-09-27T08:24:10.642Z,10.00
2018-09-27T08:25:10.639Z,8.90
2018-09-27T08:26:10.603Z,9.80
2018-09-27T08:27:10.588Z,10.30
2018-09-27T08:28:10.618Z,10.30
2018-09-27T08:29:10.556Z,9.50
2018-09-27T08:30:10.551Z,10.20
2018-09-27T08:31:10.554Z,9.70
2018-09-27T08:32:10.499Z,9.00
2018-09-27T08:33:10.491Z,10.30
2018-09-27T08:34:10.481Z,9.80
2018-09-27T08:35:10.447Z,10.50
2018-09-27T08:36:10.494Z,10.60
2018-09-27T08:37:10.417Z,11.40
2018-09-27T08:38:10.446Z,10.80
2018-09-27T08:39:10.382Z,10.00
2018-09-27T08:40:10.366Z,9.70
2018-09-27T08:41:10.348Z,10.60
2018-09-27T08:42:10.334Z,10.40
2018-09-27T08:43:10.319Z,10.40
2018-09-27T08:44:10.297Z,9.90
2018-09-27T08:45:10.413Z,10.90
2018-09-27T08:46:10.271Z,10.50
2018-09-27T08:47:10.261Z,11.00
2018-09-27T08:48:10.233Z,10.90
2018-09-27T08:49:10.216Z,10.70
2018-09-27T08:50:10.202Z,12.20
2018-09-27T08:51:10.192Z,11.60
2018-09-27T08:52:10.221Z,11.70
2018-09-27T08:53:10.152Z,12.10
2018-09-27T08:54:10.150Z,10.70
2018-09-27T08:55:10.240Z,11.90
2018-09-27T08:56:10.242Z,11.50
2018-09-27T08:57:10.085Z,10.80
2018-09-27T08:58:10.072Z,10.80
2018-09-27T08:59:10.056Z,10.70
2018-09-27T09:00:10.040Z,10.90
2018-09-27T09:01:10.022Z,11.10
2018-09-27T09:02:10.017Z,11.40
2018-09-27T09:03:09.990Z,10.90
2018-09-27T09:04:09.976Z,11.80
2018-09-27T09:05:09.961Z,11.50
2018-09-27T09:06:09.952Z,11.70
2018-09-27T09:07:09.931Z,11.30
2018-09-27T09:08:09.965Z,12.30
2018-09-27T09:09:09.908Z,11.60
2018-09-27T09:10:09.885Z,11.40
2018-09-27T09:11:09.911Z,11.30
2018-09-27T09:12:09.905Z,11.60
2018-09-27T09:13:09.863Z,12.40
2018-09-27T09:14:09.829Z,11.60
2018-09-27T09:15:09.820Z,12.20
2018-09-27T09:16:09.818Z,12.10
2018-09-27T09:17:09.792Z,11.90
2018-09-27T09:18:09.773Z,11.60
2018-09-27T09:19:09.760Z,11.70
2018-09-27T09:20:10.357Z,12.30
2018-09-27T09:21:09.743Z,13.00
2018-09-27T09:22:09.722Z,11.40
2018-09-27T09:23:09.709Z,11.90
2018-09-27T09:24:09.700Z,11.80
2018-09-27T09:25:09.684Z,11.80
2018-09-27T09:26:09.704Z,11.40
2018-09-27T09:27:09.669Z,11.40
2018-09-27T09:28:09.660Z,11.60
2018-09-27T09:29:09.642Z,11.80
2018-09-27T09:30:09.630Z,11.00
2018-09-27T09:31:09.611Z,11.80
2018-09-27T09:32:09.602Z,11.40
2018-09-27T09:33:09.588Z,11.10
2018-09-27T09:34:09.576Z,11.80
2018-09-27T09:35:09.567Z,11.30
2018-09-27T09:36:09.556Z,11.40
2018-09-27T09:37:09.547Z,11.90
2018-09-27T09:38:09.531Z,11.70
2018-09-27T09:39:09.516Z,12.80
2018-09-27T09:40:09.508Z,11.60
2018-09-27T09:41:09.492Z,11.60
2018-09-27T09:42:09.481Z,12.00
2018-09-27T09:43:09.472Z,11.60
2018-09-27T09:44:09.461Z,11.40
2018-09-27T09:45:09.451Z,11.90
2018-09-27T09:46:09.442Z,11.80
2018-09-27T09:47:09.427Z,11.50
2018-09-27T09:48:09.417Z,11.30
2018-09-27T09:49:09.416Z,11.20
2018-09-27T09:50:09.434Z,10.80
2018-09-27T09:51:09.416Z,11.20
2018-09-27T09:52:09.380Z,11.00
2018-09-27T09:53:09.369Z,10.50
2018-09-27T09:54:09.411Z,11.00
2018-09-27T09:55:09.769Z,10.80
2018-09-27T09:56:09.347Z,10.40
2018-09-27T09:58:13.698Z,10.30
2018-09-27T09:59:14.351Z,10.20
2018-09-27T10:04:38.784Z,11.40
2018-09-27T10:05:38.784Z,11.70
2018-09-27T10:06:38.769Z,12.20
2018-09-27T10:07:38.764Z,11.60
2018-09-27T10:08:38.758Z,10.60
2018-09-27T10:09:38.756Z,11.00
2018-09-27T10:10:38.747Z,11.20
2018-09-27T10:11:38.750Z,12.10
2018-09-27T10:12:38.730Z,11.80
2018-09-27T10:13:38.727Z,12.10
2018-09-27T10:14:38.994Z,11.70
2018-09-27T10:15:38.727Z,11.60
2018-09-27T10:16:38.708Z,12.60
2018-09-27T10:17:38.738Z,12.30
2018-09-27T10:18:38.704Z,12.10
2018-09-27T10:19:38.697Z,12.00
2018-09-27T10:20:38.709Z,13.10
2018-09-27T10:22:38.696Z,12.20
2018-09-27T10:25:21.510Z,12.80
2018-09-27T10:26:21.494Z,12.60
2018-09-27T10:27:21.529Z,12.90
2018-09-27T10:28:21.481Z,12.80
2018-09-27T10:29:21.473Z,13.20
2018-09-27T10:30:21.469Z,13.80
2018-09-27T10:31:21.471Z,12.90
2018-09-27T10:32:21.486Z,13.20
2018-09-27T10:33:21.449Z,12.40
2018-09-27T10:34:24.269Z,12.70
2018-09-27T10:35:24.068Z,12.00
2018-09-27T10:36:21.436Z,13.00
2018-09-27T10:37:21.422Z,12.70
2018-09-27T10:38:21.423Z,12.70
2018-09-27T10:40:29.420Z,12.70
2018-09-27T10:41:26.989Z,12.50
2018-09-27T10:45:56.252Z,12.10
2018-09-27T10:46:23.040Z,11.10
2018-09-27T10:47:23.046Z,10.50
2018-09-27T10:48:23.025Z,11.50
2018-09-27T10:49:23.035Z,12.00
2018-09-27T10:50:23.021Z,11.40
2018-09-27T10:51:23.129Z,12.30
2018-09-27T10:52:23.007Z,12.00
2018-09-27T10:53:22.992Z,12.10
2018-09-27T10:54:22.989Z,12.40
2018-09-27T10:55:22.982Z,12.00
2018-09-27T10:56:22.976Z,10.80
2018-09-27T10:57:22.974Z,11.60
2018-09-27T10:58:22.963Z,10.70
2018-09-27T10:59:22.962Z,11.90
2018-09-27T11:00:22.961Z,11.60
2018-09-27T11:01:22.970Z,11.80
2018-09-27T11:02:22.943Z,11.80
2018-09-27T11:03:22.937Z,12.40
2018-09-27T11:04:22.931Z,12.50
2018-09-27T11:05:22.927Z,12.40
2018-09-27T11:06:22.920Z,13.00
2018-09-27T11:07:22.916Z,11.80
2018-09-27T11:08:22.910Z,11.70
2018-09-27T11:09:22.903Z,11.50
2018-09-27T11:10:22.916Z,11.70
2018-09-27T11:11:22.897Z,12.20
2018-09-27T11:12:22.892Z,12.00
2018-09-27T11:13:22.882Z,12.10
2018-09-27T11:14:22.883Z,12.30
2018-09-27T11:15:22.878Z,12.10
2018-09-27T11:16:22.934Z,12.10
2018-09-27T11:17:22.866Z,12.00
2018-09-27T11:18:22.855Z,12.10
2018-09-27T11:19:22.850Z,11.30
2018-09-27T11:20:22.847Z,11.00
2018-09-27T11:21:22.844Z,10.50
2018-09-27T11:22:22.832Z,10.10
2018-09-27T11:23:22.842Z,9.50
2018-09-27T11:24:22.820Z,9.90
2018-09-27T11:25:22.814Z,10.10
2018-09-27T11:26:22.810Z,11.80
2018-09-27T11:27:22.872Z,11.80
2018-09-27T11:28:22.799Z,12.10
2018-09-27T11:29:22.791Z,12.60
2018-09-27T11:30:22.783Z,11.60
2018-09-27T11:31:22.783Z,10.90
2018-09-27T11:32:22.771Z,11.10
2018-09-27T11:34:06.391Z,9.40
2018-09-27T11:35:10.429Z,9.40
2018-09-27T11:36:06.379Z,10.30
2018-09-27T11:37:06.384Z,8.80
2018-09-27T11:38:06.367Z,9.50
2018-09-27T11:39:06.366Z,9.00
2018-09-27T11:40:06.353Z,9.50
2018-09-27T11:41:06.353Z,9.70
2018-09-27T11:42:06.332Z,9.40
2018-09-27T11:43:06.331Z,10.10
2018-09-27T11:44:06.355Z,11.20
2018-09-27T11:45:06.314Z,11.80
2018-09-27T11:46:06.303Z,12.20
2018-09-27T11:47:06.299Z,11.00
2018-09-27T11:48:06.293Z,10.50
2018-09-27T11:49:06.371Z,10.90
2018-09-27T11:50:06.358Z,9.80
2018-09-27T11:51:06.270Z,9.20
2018-09-27T11:52:06.259Z,10.60
2018-09-27T11:53:06.340Z,9.70
2018-09-27T11:54:06.240Z,11.30
2018-09-27T11:55:06.258Z,10.20
2018-09-27T11:56:39.433Z,9.50
2018-09-27T11:57:06.215Z,9.70
2018-09-27T11:58:06.384Z,9.00
2018-09-27T11:59:06.268Z,7.60
2018-09-27T12:00:06.204Z,8.40
2018-09-27T12:01:06.193Z,8.20
2018-09-27T12:02:06.177Z,7.60
2018-09-27T12:03:06.159Z,8.20
2018-09-27T12:04:06.157Z,8.10
2018-09-27T12:05:06.147Z,9.20
2018-09-27T12:06:06.134Z,8.40
2018-09-27T12:07:06.120Z,7.90
2018-09-27T12:08:06.111Z,7.70
2018-09-27T12:09:06.115Z,8.10
2018-09-27T12:10:06.098Z,7.40
2018-09-27T12:11:06.082Z,7.00
2018-09-27T12:12:06.171Z,6.50
2018-09-27T12:13:06.061Z,6.70
2018-09-27T12:14:06.061Z,6.80
2018-09-27T12:15:06.044Z,6.90
2018-09-27T12:16:06.031Z,7.90
2018-09-27T12:17:06.065Z,7.60
2018-09-27T12:18:06.009Z,7.70
2018-09-27T12:19:05.999Z,8.90
2018-09-27T12:20:06.065Z,9.20
2018-09-27T12:21:05.977Z,7.90
2018-09-27T12:22:05.972Z,7.90
2018-09-27T12:23:06.055Z,8.10
2018-09-27T12:24:05.947Z,8.30
2018-09-27T12:25:05.939Z,9.20
2018-09-27T12:26:05.934Z,8.90
2018-09-27T12:27:05.911Z,8.40
2018-09-27T12:28:05.905Z,9.40
2018-09-27T12:29:05.888Z,7.60
2018-09-27T12:30:05.891Z,7.90
2018-09-27T12:31:05.968Z,7.80
2018-09-27T12:32:05.860Z,9.60
2018-09-27T12:33:05.849Z,8.70
2018-09-27T12:34:05.869Z,6.80
2018-09-27T12:35:05.819Z,7.40
2018-09-27T12:36:05.817Z,7.90
2018-09-27T12:37:05.797Z,7.60
2018-09-27T12:38:05.784Z,7.80
2018-09-27T12:39:05.775Z,8.90
2018-09-27T12:40:05.759Z,8.80
2018-09-27T12:41:05.756Z,8.60
2018-09-27T12:42:05.990Z,7.60
2018-09-27T12:43:05.728Z,7.20
2018-09-27T12:44:05.717Z,7.20
2018-09-27T12:45:05.790Z,7.50
2018-09-27T12:46:05.767Z,6.40
2018-09-27T12:47:05.678Z,6.80
2018-09-27T12:48:05.742Z,6.50
2018-09-27T12:49:05.658Z,7.00
2018-09-27T12:50:05.645Z,6.40
2018-09-27T12:51:05.659Z,7.00
2018-09-27T12:52:05.873Z,6.80
2018-09-27T12:53:05.770Z,6.90
2018-09-27T12:54:05.679Z,7.00
2018-09-27T12:55:05.583Z,6.60
2018-09-27T12:56:05.637Z,7.10
2018-09-27T12:57:05.717Z,12.90
2018-09-27T12:58:05.546Z,8.10
2018-09-27T12:59:05.534Z,7.70
2018-09-27T13:00:05.530Z,7.70
2018-09-27T13:01:05.628Z,6.80
2018-09-27T13:02:05.755Z,6.90
2018-09-27T13:03:05.487Z,7.00
2018-09-27T13:04:05.515Z,7.20
2018-09-27T13:05:05.461Z,7.00
2018-09-27T13:06:05.455Z,7.30
2018-09-27T13:07:05.459Z,6.90
2018-09-27T13:08:05.424Z,6.80
2018-09-27T13:09:05.564Z,7.70
2018-09-27T13:10:05.513Z,7.70
2018-09-27T13:11:05.387Z,7.10
2018-09-27T13:12:05.481Z,7.90
2018-09-27T13:13:05.429Z,7.20
2018-09-27T13:14:05.371Z,7.90
2018-09-27T13:15:05.391Z,7.60
2018-09-27T13:16:05.514Z,7.30
2018-09-27T13:17:05.332Z,7.10
2018-09-27T13:18:05.299Z,7.00
2018-09-27T13:19:05.360Z,7.00
2018-09-27T13:20:05.400Z,7.00
2018-09-27T13:21:05.266Z,7.50
2018-09-27T13:22:05.255Z,7.30
2018-09-27T13:23:05.348Z,7.70
2018-09-27T13:24:05.226Z,6.70
2018-09-27T13:25:05.234Z,7.70